Time;durP1;ratioP1;P1;durP2;ratioP2;P2;SDS_P1;SDS_P2;PMS_P1;PMS_P2;Temp;Humidity;BMP_temperature;BMP_pressure;BME280_temperature;BME280_humidity;BME280_pressure;Samples;Min_cycle;Max_cycle;Signal;HPM_P1;HPM_P2
2024/03/22 00:01:45;;;;;;;38.45;15.15;;;;;;;7.19;100.00;101256.03;5030322;28;20037;-77
2024/03/22 00:04:11;;;;;;;32.42;14.63;;;;;;;7.00;100.00;101239.06;5032821;28;20037;-77
2024/03/22 00:06:37;;;;;;;34.60;14.35;;;;;;;7.08;100.00;101248.09;5034809;28;20536;-76
2024/03/22 00:09:03;;;;;;;30.35;14.45;;;;;;;7.09;100.00;101241.81;5034906;28;20037;-76
2024/03/22 00:11:28;;;;;;;31.45;14.73;;;;;;;7.11;100.00;101245.19;5032599;28;20393;-76
2024/03/22 00:13:53;;;;;;;38.53;16.00;;;;;;;7.26;100.00;101260.81;5024743;28;20411;-76
2024/03/22 00:16:19;;;;;;;30.88;16.35;;;;;;;7.30;100.00;101247.13;5032627;28;20029;-77
2024/03/22 00:18:44;;;;;;;34.73;14.70;;;;;;;7.32;100.00;101247.84;5033663;28;20037;-77
2024/03/22 00:21:10;;;;;;;32.88;15.05;;;;;;;7.28;100.00;101238.47;5037520;28;20706;-77
2024/03/22 00:23:35;;;;;;;31.90;14.10;;;;;;;7.36;100.00;101243.16;5043287;28;20028;-77
2024/03/22 00:26:01;;;;;;;30.77;14.95;;;;;;;7.18;100.00;101206.53;5036530;28;20047;-76
2024/03/22 00:28:26;;;;;;;31.53;14.73;;;;;;;7.05;100.00;101200.56;5040553;28;20029;-75
2024/03/22 00:30:51;;;;;;;35.00;15.37;;;;;;;7.11;100.00;101213.31;5035870;28;20848;-77
2024/03/22 00:33:17;;;;;;;31.07;15.97;;;;;;;7.23;100.00;101226.53;5043458;28;20146;-77
2024/03/22 00:35:42;;;;;;;30.60;15.23;;;;;;;7.11;100.00;101201.88;5027717;28;20042;-76
2024/03/22 00:38:07;;;;;;;35.90;15.97;;;;;;;7.21;100.00;101202.78;5039253;28;20041;-76
2024/03/22 00:40:33;;;;;;;34.83;15.57;;;;;;;7.29;100.00;101204.78;5036266;28;20496;-76
2024/03/22 00:42:58;;;;;;;30.63;15.80;;;;;;;7.31;100.00;101193.06;5037274;28;20029;-77
2024/03/22 00:45:24;;;;;;;28.55;15.25;;;;;;;7.24;100.00;101180.44;5026464;28;20409;-77
2024/03/22 00:47:49;;;;;;;35.97;16.90;;;;;;;7.35;100.00;101185.66;5034543;28;20045;-76
2024/03/22 00:50:14;;;;;;;37.70;16.40;;;;;;;7.21;100.00;101180.69;5035856;28;20052;-76
2024/03/22 00:52:40;;;;;;;38.30;16.43;;;;;;;7.33;100.00;101172.53;5021234;28;20613;-76
2024/03/22 00:55:07;;;;;;;29.25;16.00;;;;;;;7.38;100.00;101177.44;5023488;28;20037;-77
2024/03/22 00:57:32;;;;;;;31.60;15.60;;;;;;;7.47;100.00;101175.78;5034591;28;20478;-77
2024/03/22 00:59:58;;;;;;;35.38;16.38;;;;;;;7.29;100.00;101139.22;5030132;28;20103;-76
2024/03/22 01:02:23;;;;;;;37.72;18.55;;;;;;;7.51;100.00;101172.75;5021902;28;20025;-76
2024/03/22 01:04:49;;;;;;;31.75;15.55;;;;;;;7.53;100.00;101152.19;5038692;28;20738;-77
2024/03/22 01:07:14;;;;;;;35.43;16.53;;;;;;;7.40;100.00;101133.00;5035836;28;20119;-77
2024/03/22 01:09:39;;;;;;;33.43;16.50;;;;;;;7.31;100.00;101107.22;5031993;28;20279;-76
2024/03/22 01:12:05;;;;;;;33.40;16.47;;;;;;;7.29;100.00;101098.56;5018080;28;20043;-77
2024/03/22 01:14:31;;;;;;;32.30;16.65;;;;;;;7.23;100.00;101088.44;5037048;28;20041;-77
2024/03/22 01:16:56;;;;;;;34.35;15.18;;;;;;;7.33;100.00;101105.28;5033191;28;20150;-77
2024/03/22 01:19:22;;;;;;;33.13;17.83;;;;;;;7.14;100.00;101077.66;5040974;28;20090;-77
2024/03/22 01:21:48;;;;;;;34.92;17.10;;;;;;;7.40;100.00;101109.94;5023919;28;20049;-77
2024/03/22 01:24:14;;;;;;;36.28;18.02;;;;;;;7.48;100.00;101117.22;5018092;28;20033;-77
2024/03/22 01:26:39;;;;;;;38.53;17.27;;;;;;;7.60;100.00;101107.34;5034210;28;20059;-75
2024/03/22 01:29:04;;;;;;;40.57;21.10;;;;;;;7.45;100.00;101080.31;5042361;28;20827;-77
2024/03/22 01:31:30;;;;;;;42.70;18.23;;;;;;;7.55;100.00;101081.16;5038687;28;20037;-77
2024/03/22 01:33:55;;;;;;;41.57;17.60;;;;;;;7.48;100.00;101055.28;5046375;28;20036;-77
2024/03/22 01:36:20;;;;;;;33.57;17.03;;;;;;;7.51;100.00;101058.50;5036641;28;20029;-76
2024/03/22 01:38:46;;;;;;;35.07;17.97;;;;;;;7.59;100.00;101061.34;5028131;28;20033;-77
2024/03/22 01:41:11;;;;;;;38.90;18.30;;;;;;;7.67;100.00;101073.09;5034224;28;20072;-76
2024/03/22 01:43:37;;;;;;;34.47;18.60;;;;;;;7.65;100.00;101053.78;5026947;28;20033;-77
2024/03/22 01:46:02;;;;;;;39.83;18.57;;;;;;;7.55;100.00;101048.44;5032287;28;20107;-77
2024/03/22 01:48:28;;;;;;;37.80;18.42;;;;;;;7.57;100.00;101042.03;5036883;28;20087;-75
2024/03/22 01:50:53;;;;;;;38.30;17.10;;;;;;;7.53;100.00;101029.16;5036726;28;20484;-76
2024/03/22 01:53:19;;;;;;;33.50;17.58;;;;;;;7.50;100.00;101030.25;5035496;28;20148;-77
2024/03/22 01:55:44;;;;;;;37.58;19.38;;;;;;;7.65;100.00;101040.50;5027693;28;20033;-76
2024/03/22 01:58:12;;;;;;;38.28;18.40;;;;;;;7.56;100.00;101029.72;5023625;28;20036;-77
2024/03/22 02:00:38;;;;;;;38.22;18.05;;;;;;;7.60;100.00;101020.47;5032586;28;20117;-77
2024/03/22 02:03:04;;;;;;;;;;;;;;;7.67;100.00;101017.28;5052229;28;20064;-77
2024/03/22 02:05:29;;;;;;;36.67;17.58;;;;;;;7.59;100.00;101015.31;5035182;28;19989;-77
2024/03/22 02:07:55;;;;;;;40.93;20.73;;;;;;;7.59;100.00;101018.00;5034841;28;20520;-77
2024/03/22 02:10:21;;;;;;;58.17;22.27;;;;;;;7.61;100.00;101038.13;5034876;28;20319;-76
2024/03/22 02:12:46;;;;;;;42.22;20.45;;;;;;;7.46;100.00;101023.53;5023732;28;20033;-77
2024/03/22 02:15:12;;;;;;;39.00;20.13;;;;;;;7.65;100.00;101043.16;5023686;28;20743;-77
2024/03/22 02:17:37;;;;;;;44.00;19.23;;;;;;;7.70;100.00;101032.97;5036629;28;20120;-77
2024/03/22 02:20:04;;;;;;;43.87;20.40;;;;;;;7.73;100.00;101011.44;5037452;28;20283;-76
2024/03/22 02:22:29;;;;;;;41.22;20.52;;;;;;;7.73;100.00;101008.78;5019639;28;20044;-77
2024/03/22 02:24:55;;;;;;;38.77;21.47;;;;;;;7.66;100.00;100992.53;5032716;28;20038;-77
2024/03/22 02:27:20;;;;;;;45.47;20.75;;;;;;;7.61;100.00;100984.97;5033101;28;20076;-76
2024/03/22 02:29:46;;;;;;;40.40;20.13;;;;;;;7.77;100.00;100984.44;5043124;28;20404;-77
2024/03/22 02:32:12;;;;;;;43.53;20.08;;;;;;;7.75;100.00;100981.09;5035394;28;20037;-77
2024/03/22 02:34:37;;;;;;;38.00;19.85;;;;;;;7.83;100.00;100975.06;5027112;28;20034;-77
2024/03/22 02:37:02;;;;;;;42.40;20.10;;;;;;;7.76;100.00;100963.31;5010594;28;20040;-76
2024/03/22 02:39:28;;;;;;;51.47;23.58;;;;;;;7.92;100.00;100970.75;5042643;28;20047;-76
2024/03/22 02:41:54;;;;;;;43.92;21.73;;;;;;;7.90;100.00;100972.69;5032461;28;20025;-77
2024/03/22 02:44:19;;;;;;;40.22;20.95;;;;;;;7.91;100.00;100977.84;5027955;28;20029;-77
2024/03/22 02:46:45;;;;;;;36.80;19.97;;;;;;;7.93;100.00;100967.94;5030404;28;20407;-77
2024/03/22 02:49:10;;;;;;;43.30;21.30;;;;;;;7.97;100.00;100942.75;5018288;28;20654;-77
2024/03/22 02:51:36;;;;;;;44.07;20.93;;;;;;;7.93;100.00;100946.66;5027704;28;20071;-77
2024/03/22 02:54:01;;;;;;;48.30;21.60;;;;;;;7.97;100.00;100939.25;5027705;28;20280;-77
2024/03/22 02:56:27;;;;;;;40.95;21.15;;;;;;;7.98;100.00;100938.25;5035341;28;20324;-77
2024/03/22 02:58:53;;;;;;;47.95;21.20;;;;;;;7.94;100.00;100929.75;5017518;28;20068;-76
2024/03/22 03:01:18;;;;;;;46.77;22.43;;;;;;;7.96;100.00;100925.13;5034859;28;20061;-77
2024/03/22 03:03:44;;;;;;;48.60;23.17;;;;;;;7.93;100.00;100925.38;5035639;28;20334;-77
2024/03/22 03:06:09;;;;;;;42.33;20.87;;;;;;;7.98;100.00;100933.81;5040906;28;20041;-77
2024/03/22 03:08:35;;;;;;;40.83;20.02;;;;;;;7.89;100.00;100933.78;5037447;28;20806;-77
2024/03/22 03:11:00;;;;;;;44.47;23.00;;;;;;;7.92;100.00;100934.34;5028372;28;20106;-77
2024/03/22 03:13:26;;;;;;;42.95;22.85;;;;;;;7.99;100.00;100931.97;5035471;28;20315;-77
2024/03/22 03:15:51;;;;;;;47.85;24.42;;;;;;;7.96;100.00;100933.09;5025692;28;20044;-76
2024/03/22 03:18:17;;;;;;;40.70;20.63;;;;;;;7.95;100.00;100919.94;5015198;28;20701;-76
2024/03/22 03:20:43;;;;;;;44.17;22.63;;;;;;;8.04;100.00;100922.59;5033132;28;20292;-76
2024/03/22 03:23:08;;;;;;;;;;;;;;;7.93;100.00;100912.09;5025211;28;20111;-77
2024/03/22 03:25:34;;;;;;;46.53;23.10;;;;;;;8.06;100.00;100924.28;5025944;28;20387;-77
2024/03/22 03:27:59;;;;;;;46.73;22.90;;;;;;;8.07;100.00;100923.28;5036093;28;20038;-77
2024/03/22 03:30:24;;;;;;;51.67;24.80;;;;;;;8.08;100.00;100906.34;5035296;28;20025;-77
2024/03/22 03:32:50;;;;;;;50.20;24.20;;;;;;;8.14;100.00;100911.09;5035308;28;20283;-77
2024/03/22 03:35:15;;;;;;;53.13;24.40;;;;;;;8.01;100.00;100888.31;5029776;28;20025;-77
2024/03/22 03:37:41;;;;;;;49.93;23.10;;;;;;;8.12;100.00;100891.78;5036862;28;20045;-77
2024/03/22 03:40:07;;;;;;;47.97;22.03;;;;;;;8.20;100.00;100905.22;5040839;28;20283;-77
2024/03/22 03:42:32;;;;;;;43.20;23.35;;;;;;;8.11;100.00;100879.47;5019309;28;20127;-76
2024/03/22 03:44:57;;;;;;;53.43;25.17;;;;;;;8.04;100.00;100885.34;5040289;28;20427;-76
2024/03/22 03:47:23;;;;;;;47.67;22.30;;;;;;;7.97;100.00;100883.41;5033298;28;20036;-76
2024/03/22 03:49:48;;;;;;;47.58;22.88;;;;;;;8.15;100.00;100900.34;5023940;28;20026;-77
2024/03/22 03:52:14;;;;;;;52.83;25.05;;;;;;;8.10;100.00;100875.13;5032917;28;20380;-76
2024/03/22 03:54:39;;;;;;;47.15;24.50;;;;;;;8.08;100.00;100869.09;5035997;28;20055;-76
2024/03/22 03:57:05;;;;;;;49.20;24.83;;;;;;;8.16;100.00;100883.38;5027540;28;20431;-77
2024/03/22 03:59:31;;;;;;;54.90;23.40;;;;;;;8.10;100.00;100870.66;5031065;28;20559;-77
2024/03/22 04:01:56;;;;;;;46.58;25.50;;;;;;;8.20;100.00;100879.47;5017733;28;20042;-77
2024/03/22 04:04:22;;;;;;;54.50;25.30;;;;;;;8.21;100.00;100875.81;5034001;28;20784;-77
2024/03/22 04:06:47;;;;;;;48.65;23.80;;;;;;;8.31;100.00;100880.25;5037524;28;20043;-76
2024/03/22 04:09:13;;;;;;;50.25;24.50;;;;;;;8.21;100.00;100859.00;5030240;28;20030;-77
2024/03/22 04:11:38;;;;;;;56.88;27.05;;;;;;;8.24;100.00;100864.91;5041171;28;20109;-76
2024/03/22 04:14:05;;;;;;;52.50;24.38;;;;;;;8.19;100.00;100867.16;5038664;28;20068;-76
2024/03/22 04:16:30;;;;;;;;;;;;;;;8.35;100.00;100871.84;5035465;28;20048;-77
2024/03/22 04:18:55;;;;;;;50.63;25.02;;;;;;;8.16;100.00;100845.31;5024581;28;20388;-77
2024/03/22 04:21:21;;;;;;;62.70;25.87;;;;;;;8.15;100.00;100849.81;5032465;28;20033;-76
2024/03/22 04:23:46;;;;;;;44.80;23.47;;;;;;;8.30;100.00;100858.16;5024836;28;20036;-77
2024/03/22 04:26:12;;;;;;;50.10;25.47;;;;;;;8.21;100.00;100840.38;5020772;28;20080;-77
2024/03/22 04:28:37;;;;;;;50.58;25.10;;;;;;;8.29;100.00;100856.47;5036942;28;20037;-77
2024/03/22 04:31:05;;;;;;;59.20;26.47;;;;;;;8.31;100.00;100854.53;5036241;28;20045;-76
2024/03/22 04:33:32;;;;;;;49.60;25.95;;;;;;;8.28;100.00;100844.16;5016028;28;20292;-77
2024/03/22 04:35:58;;;;;;;49.97;25.40;;;;;;;8.13;100.00;100837.63;5020239;28;20426;-76
2024/03/22 04:38:25;;;;;;;50.92;24.73;;;;;;;8.40;100.00;100869.59;5021656;28;20017;-77
2024/03/22 04:40:51;;;;;;;61.55;26.73;;;;;;;8.33;100.00;100844.53;5037461;28;20547;-77
2024/03/22 04:43:17;;;;;;;55.53;26.42;;;;;;;8.37;100.00;100853.09;5011168;28;20095;-76
2024/03/22 04:45:43;;;;;;;51.20;25.23;;;;;;;8.47;100.00;100861.88;5019195;28;21008;-76
2024/03/22 04:48:09;;;;;;;;;;;;;;;8.49;100.00;100849.28;5011242;28;20045;-76
2024/03/22 04:50:35;;;;;;;60.97;29.17;;;;;;;8.48;100.00;100844.13;5038994;28;20000;-77
2024/03/22 04:53:01;;;;;;;54.83;28.40;;;;;;;8.56;100.00;100842.38;5033402;28;20468;-77
2024/03/22 04:55:26;;;;;;;57.22;28.92;;;;;;;8.57;100.00;100821.94;5028828;28;20079;-77
2024/03/22 04:57:52;;;;;;;60.23;27.80;;;;;;;8.60;100.00;100821.66;5027628;28;20495;-77
2024/03/22 05:00:18;;;;;;;58.60;27.15;;;;;;;8.51;100.00;100807.41;5027474;28;20026;-76
2024/03/22 05:02:43;;;;;;;59.85;27.27;;;;;;;8.48;100.00;100814.84;5028711;28;20037;-77
2024/03/22 05:05:09;;;;;;;57.73;28.63;;;;;;;8.54;100.00;100812.41;5028561;28;20484;-77
2024/03/22 05:07:34;;;;;;;56.78;28.70;;;;;;;8.53;100.00;100808.09;5027661;28;20088;-77
2024/03/22 05:10:01;;;;;;;53.20;26.60;;;;;;;8.66;100.00;100805.94;5043471;28;20037;-77
2024/03/22 05:12:28;;;;;;;61.55;29.25;;;;;;;8.71;100.00;100796.66;5035470;28;20268;-77
2024/03/22 05:14:53;;;;;;;53.13;28.13;;;;;;;8.74;100.00;100789.22;5046899;28;20032;-77
2024/03/22 05:17:19;;;;;;;59.43;29.73;;;;;;;8.64;100.00;100783.94;5040897;28;20451;-77
2024/03/22 05:19:44;;;;;;;61.23;29.20;;;;;;;8.57;100.00;100774.88;5027880;28;20032;-77
2024/03/22 05:22:09;;;;;;;58.90;30.20;;;;;;;8.71;100.00;100786.84;5040482;28;20443;-77
2024/03/22 05:24:35;;;;;;;64.27;30.50;;;;;;;8.70;100.00;100773.69;5029857;28;20047;-77
2024/03/22 05:27:00;;;;;;;55.83;27.47;;;;;;;8.68;100.00;100771.16;5028140;28;20098;-76
2024/03/22 05:29:26;;;;;;;58.83;30.23;;;;;;;8.55;100.00;100771.53;5032533;28;20025;-76
2024/03/22 05:31:51;;;;;;;56.70;29.80;;;;;;;8.70;100.00;100785.16;5021722;28;20123;-76
2024/03/22 05:34:20;;;;;;;64.28;31.17;;;;;;;8.77;100.00;100788.91;5038541;28;20032;-76
2024/03/22 05:36:46;;;;;;;64.60;30.95;;;;;;;8.56;100.00;100770.53;5044519;28;20029;-77
2024/03/22 05:39:11;;;;;;;56.83;29.98;;;;;;;8.60;100.00;100781.72;5040186;28;20021;-76
2024/03/22 05:41:37;;;;;;;66.63;33.78;;;;;;;8.76;100.00;100791.75;5042340;28;20047;-76
2024/03/22 05:44:03;;;;;;;65.22;30.42;;;;;;;8.66;100.00;100783.78;5024265;28;20044;-76
2024/03/22 05:46:30;;;;;;;65.03;31.15;;;;;;;8.80;100.00;100807.25;5027911;28;20036;-78
2024/03/22 05:48:56;;;;;;;;;;;;;;;8.80;100.00;100793.94;5037918;28;20518;-77
2024/03/22 05:51:21;;;;;;;72.72;32.78;;;;;;;8.70;100.00;100793.16;5042034;28;19974;-76
2024/03/22 05:53:46;;;;;;;61.20;29.60;;;;;;;8.82;100.00;100802.59;5046225;28;20025;-77
2024/03/22 05:56:12;;;;;;;67.30;33.23;;;;;;;8.72;100.00;100780.53;5042673;28;20315;-77
2024/03/22 05:58:37;;;;;;;64.20;33.40;;;;;;;8.64;100.00;100786.63;5034310;28;20041;-77
2024/03/22 06:01:03;;;;;;;70.97;33.50;;;;;;;8.71;100.00;100805.50;5037061;28;20034;-76
2024/03/22 06:03:29;;;;;;;72.65;33.97;;;;;;;8.83;100.00;100806.13;5040213;28;20492;-76
2024/03/22 06:05:59;;;;;;;67.45;33.42;;;;;;;8.88;100.00;100798.53;5039409;28;20029;-77
2024/03/22 06:08:25;;;;;;;71.13;33.25;;;;;;;8.84;100.00;100799.78;5044992;28;20519;-77
2024/03/22 06:10:50;;;;;;;65.93;33.10;;;;;;;8.85;100.00;100796.16;5028402;28;20025;-77
2024/03/22 06:13:16;;;;;;;68.32;32.95;;;;;;;8.71;100.00;100786.84;5039399;28;20032;-77
2024/03/22 06:15:45;;;;;;;70.87;34.97;;;;;;;8.84;100.00;100803.28;5042373;28;20036;-77
2024/03/22 06:18:11;;;;;;;72.28;36.13;;;;;;;8.95;100.00;100810.25;5033573;28;20040;-78
2024/03/22 06:20:36;;;;;;;72.30;36.33;;;;;;;9.05;100.00;100816.31;5022023;28;20106;-76
2024/03/22 06:23:02;;;;;;;65.55;33.60;;;;;;;8.85;100.00;100775.69;5027394;28;20034;-76
2024/03/22 06:25:27;;;;;;;67.97;34.53;;;;;;;8.98;100.00;100788.63;5023353;28;20110;-77
2024/03/22 06:27:52;;;;;;;71.80;35.00;;;;;;;9.15;100.00;100802.09;5025138;28;20716;-78
2024/03/22 06:30:18;;;;;;;69.37;36.77;;;;;;;9.00;100.00;100777.84;5026483;28;20033;-78
2024/03/22 06:32:43;;;;;;;67.03;35.55;;;;;;;8.93;100.00;100780.25;5041525;28;20021;-77
2024/03/22 06:35:09;;;;;;;68.83;33.47;;;;;;;9.14;100.00;100787.97;5020006;28;20055;-76
2024/03/22 06:37:34;;;;;;;75.00;36.03;;;;;;;9.18;100.00;100746.72;5044877;28;20059;-77
2024/03/22 06:39:59;;;;;;;74.77;37.37;;;;;;;9.31;100.00;100748.97;5019132;28;20045;-77
2024/03/22 06:42:26;;;;;;;75.47;36.63;;;;;;;9.36;100.00;100719.19;5044457;28;20032;-76
2024/03/22 06:44:53;;;;;;;75.88;36.25;;;;;;;9.36;100.00;100701.38;5045695;28;20144;-76
2024/03/22 06:47:20;;;;;;;78.32;35.90;;;;;;;9.36;100.00;100701.38;5022647;28;20636;-77
2024/03/22 06:49:46;;;;;;;75.82;36.85;;;;;;;9.44;100.00;100697.97;5041322;28;20148;-77
2024/03/22 06:52:11;;;;;;;71.93;35.55;;;;;;;9.26;100.00;100676.66;5041489;28;20124;-76
2024/03/22 06:54:37;;;;;;;71.57;34.63;;;;;;;9.14;100.00;100680.59;5044624;28;20140;-76
2024/03/22 06:57:02;;;;;;;75.18;38.05;;;;;;;9.36;100.00;100705.88;5037461;28;20033;-77
2024/03/22 06:59:27;;;;;;;79.68;39.47;;;;;;;9.42;100.00;100705.25;5045000;28;20044;-77
2024/03/22 07:01:53;;;;;;;72.70;36.77;;;;;;;9.41;100.00;100696.44;5027478;28;20480;-77
2024/03/22 07:04:18;;;;;;;77.30;38.67;;;;;;;9.26;100.00;100696.16;5017085;28;20025;-77
2024/03/22 07:06:43;;;;;;;74.53;36.57;;;;;;;9.44;100.00;100717.44;5032681;28;20041;-77
2024/03/22 07:09:09;;;;;;;78.03;37.43;;;;;;;9.25;100.00;100694.50;5028841;28;20371;-76
2024/03/22 07:11:34;;;;;;;74.33;37.13;;;;;;;9.26;100.00;100709.47;5025619;28;20120;-77
2024/03/22 07:14:00;;;;;;;72.28;35.92;;;;;;;9.36;100.00;100708.53;5024477;28;20044;-76
2024/03/22 07:16:25;;;;;;;72.33;35.37;;;;;;;9.27;100.00;100694.31;5025846;28;20112;-76
2024/03/22 07:18:50;;;;;;;71.37;37.00;;;;;;;9.39;100.00;100713.56;5025767;28;20375;-77
2024/03/22 07:21:16;;;;;;;78.73;38.60;;;;;;;9.34;100.00;100687.41;5021928;28;20021;-77
2024/03/22 07:23:41;;;;;;;76.40;36.07;;;;;;;9.45;100.00;100696.94;5036048;28;20065;-76
2024/03/22 07:26:07;;;;;;;69.15;36.80;;;;;;;9.39;100.00;100689.56;5025226;28;20048;-77
2024/03/22 07:28:33;;;;;;;78.55;36.13;;;;;;;9.33;100.00;100684.88;5027361;28;20037;-77
2024/03/22 07:30:59;;;;;;;74.97;38.72;;;;;;;9.61;100.00;100709.56;5040955;28;20039;-77
2024/03/22 07:33:24;;;;;;;68.82;35.63;;;;;;;9.62;100.00;100692.56;5024321;28;20030;-77
2024/03/22 07:35:50;;;;;;;71.88;37.53;;;;;;;9.48;100.00;100680.63;5029668;28;20455;-77
2024/03/22 07:38:15;;;;;;;79.40;37.72;;;;;;;9.55;100.00;100703.00;5033683;28;20101;-77
2024/03/22 07:40:41;;;;;;;77.90;37.93;;;;;;;9.66;100.00;100713.41;5026302;28;20065;-77
2024/03/22 07:43:06;;;;;;;83.38;37.38;;;;;;;9.53;100.00;100694.34;5035754;28;20028;-77
2024/03/22 07:45:34;;;;;;;78.97;39.92;;;;;;;9.62;100.00;100722.72;5037909;28;20195;-77
2024/03/22 07:47:59;;;;;;;81.28;38.22;;;;;;;9.67;100.00;100728.44;5023568;28;20037;-76
2024/03/22 07:50:25;;;;;;;80.05;40.58;;;;;;;9.68;100.00;100716.75;5035151;28;20036;-77
2024/03/22 07:52:51;;;;;;;79.60;38.85;;;;;;;9.63;100.00;100720.91;5013723;28;20086;-77
2024/03/22 07:55:17;;;;;;;79.63;40.95;;;;;;;9.54;100.00;100736.00;5030627;28;20064;-77
2024/03/22 07:57:42;;;;;;;87.30;40.55;;;;;;;9.56;100.00;100749.16;5033117;28;20088;-78
2024/03/22 08:00:08;;;;;;;81.70;42.23;;;;;;;9.52;100.00;100775.28;5006982;28;20040;-77
2024/03/22 08:02:41;;;;;;;79.90;37.33;;;;;;;9.66;100.00;100790.72;5023515;28;20021;-77
2024/03/22 08:05:07;;;;;;;84.90;41.67;;;;;;;9.55;100.00;100761.63;5033466;28;20029;-78
2024/03/22 08:07:32;;;;;;;77.50;38.60;;;;;;;9.51;100.00;100760.31;5007617;28;20033;-77
2024/03/22 08:09:58;;;;;;;74.07;38.47;;;;;;;9.62;100.00;100768.03;5033010;28;20116;-76
2024/03/22 08:12:24;;;;;;;81.45;39.75;;;;;;;9.42;100.00;100731.91;5024061;28;20033;-77
2024/03/22 08:14:50;;;;;;;80.28;38.47;;;;;;;9.46;100.00;100754.59;5035657;28;20688;-77
2024/03/22 08:17:16;;;;;;;80.25;39.10;;;;;;;9.44;100.00;100745.91;5027563;28;20451;-77
2024/03/22 08:19:42;;;;;;;80.82;37.38;;;;;;;9.43;100.00;100730.91;5020527;28;20052;-77
2024/03/22 08:22:07;;;;;;;75.03;37.75;;;;;;;9.58;100.00;100742.69;5023701;28;20037;-77
2024/03/22 08:24:33;;;;;;;78.43;36.23;;;;;;;9.71;100.00;100756.41;5027381;28;20967;-77
2024/03/22 08:26:59;;;;;;;77.38;37.40;;;;;;;9.62;100.00;100740.53;5026392;28;20295;-77
2024/03/22 08:29:24;;;;;;;82.57;38.90;;;;;;;9.63;100.00;100753.72;5024076;28;20768;-77
2024/03/22 08:31:50;;;;;;;81.60;41.97;;;;;;;9.68;100.00;100767.41;5023640;28;20025;-78
2024/03/22 08:34:15;;;;;;;80.90;38.67;;;;;;;9.73;100.00;100762.44;5032126;28;20037;-77
2024/03/22 08:36:40;;;;;;;84.43;40.00;;;;;;;9.73;100.00;100762.44;5024979;28;20034;-77
2024/03/22 08:39:09;;;;;;;79.83;36.30;;;;;;;9.76;100.00;100752.44;5029618;28;20291;-77
2024/03/22 08:41:35;;;;;;;84.78;39.90;;;;;;;9.65;100.00;100753.56;5029790;28;20595;-77
2024/03/22 08:44:00;;;;;;;79.33;37.50;;;;;;;9.50;100.00;100740.81;5027618;28;20045;-77
2024/03/22 08:46:27;;;;;;;73.40;36.27;;;;;;;9.60;100.00;100772.69;5020398;28;20124;-76
2024/03/22 08:48:53;;;;;;;74.55;38.55;;;;;;;9.73;100.00;100772.28;5030577;28;20288;-77
2024/03/22 08:51:19;;;;;;;80.35;38.00;;;;;;;9.70;100.00;100769.94;5033442;28;20022;-77
2024/03/22 08:53:44;;;;;;;81.40;38.95;;;;;;;9.56;100.00;100766.00;5037838;28;20038;-77
2024/03/22 08:56:11;;;;;;;91.20;40.33;;;;;;;9.69;100.00;100771.75;5026209;28;20037;-77
2024/03/22 08:58:36;;;;;;;88.18;40.78;;;;;;;9.59;100.00;100781.66;5027330;28;20032;-77
2024/03/22 09:01:02;;;;;;;85.57;39.50;;;;;;;9.68;100.00;100786.06;5036752;28;20029;-77
2024/03/22 09:03:27;;;;;;;84.45;40.03;;;;;;;9.69;100.00;100777.09;5027472;28;20484;-77
2024/03/22 09:05:55;;;;;;;92.03;41.40;;;;;;;9.75;100.00;100769.47;5026959;28;20033;-77
2024/03/22 09:08:24;;;;;;;98.72;42.67;;;;;;;9.46;100.00;100765.25;5036576;28;20484;-76
2024/03/22 09:10:49;;;;;;;90.63;41.78;;;;;;;9.67;100.00;100767.59;5026040;28;20365;-77
2024/03/22 09:13:14;;;;;;;112.27;44.13;;;;;;;9.78;100.00;100777.13;5027091;28;20060;-77
2024/03/22 09:15:40;;;;;;;84.32;38.72;;;;;;;9.68;100.00;100764.75;5017011;28;20048;-77
2024/03/22 09:18:05;;;;;;;78.27;37.30;;;;;;;9.57;100.00;100751.66;5030111;28;20055;-77
2024/03/22 09:20:31;;;;;;;82.88;39.00;;;;;;;9.71;100.00;100758.25;5028063;28;20021;-77
2024/03/22 09:22:57;;;;;;;90.93;39.80;;;;;;;9.79;100.00;100754.81;5033955;28;20033;-77
2024/03/22 09:25:24;;;;;;;80.73;39.33;;;;;;;9.71;100.00;100739.59;5019028;28;20040;-77
2024/03/22 09:27:49;;;;;;;76.80;37.10;;;;;;;9.72;100.00;100739.44;5026897;28;20037;-77
2024/03/22 09:30:15;;;;;;;82.78;37.17;;;;;;;9.79;100.00;100739.66;5025931;28;20043;-76
2024/03/22 09:32:41;;;;;;;93.82;41.35;;;;;;;9.68;100.00;100737.25;5036491;28;20033;-77
2024/03/22 09:35:06;;;;;;;82.53;38.35;;;;;;;9.79;100.00;100738.84;5036123;28;20037;-77
2024/03/22 09:37:32;;;;;;;84.43;39.70;;;;;;;9.84;100.00;100725.84;5036388;28;20028;-76
2024/03/22 09:39:58;;;;;;;84.97;38.50;;;;;;;9.80;100.00;100722.66;5026628;28;20555;-78
2024/03/22 09:42:25;;;;;;;95.15;44.45;;;;;;;9.76;100.00;100715.13;5034469;28;20040;-77
2024/03/22 09:44:51;;;;;;;88.57;40.78;;;;;;;9.67;100.00;100717.75;5027232;28;20063;-77
2024/03/22 09:47:20;;;;;;;90.22;41.85;;;;;;;9.81;100.00;100731.47;5024195;28;20029;-76
2024/03/22 09:49:46;;;;;;;95.22;40.55;;;;;;;9.51;100.00;100709.66;5036283;28;20056;-77
2024/03/22 09:52:19;;;;;;;86.60;41.45;;;;;;;9.66;100.00;100718.75;5038197;28;20661;-77
2024/03/22 09:54:45;;;;;;;100.20;43.08;;;;;;;9.65;100.00;100714.41;5029199;28;20033;-77
2024/03/22 09:57:17;;;;;;;93.32;41.13;;;;;;;9.79;100.00;100728.16;5036123;28;20040;-77
2024/03/22 09:59:44;;;;;;;95.10;40.88;;;;;;;9.78;100.00;100721.16;5026096;28;20411;-77
2024/03/22 10:02:14;;;;;;;91.75;39.55;;;;;;;9.83;100.00;100700.16;5033009;28;20065;-77
2024/03/22 10:04:43;;;;;;;91.22;39.28;;;;;;;9.72;100.00;100699.47;5039415;28;20072;-78
2024/03/22 10:07:10;;;;;;;77.18;38.92;;;;;;;9.82;100.00;100686.00;5039523;28;20708;-77
2024/03/22 10:09:35;;;;;;;89.22;38.58;;;;;;;9.88;100.00;100676.53;5032050;28;20061;-77
2024/03/22 10:12:01;;;;;;;72.50;35.55;;;;;;;10.07;100.00;100678.13;5021119;28;20071;-77
2024/03/22 10:14:26;;;;;;;80.47;35.43;;;;;;;10.17;100.00;100681.50;5027853;28;20091;-77
2024/03/22 10:16:53;;;;;;;80.47;36.38;;;;;;;10.08;100.00;100672.63;5025599;28;20036;-78
2024/03/22 10:19:20;;;;;;;75.72;36.13;;;;;;;10.16;100.00;100666.50;5026163;28;20598;-77
2024/03/22 10:21:46;;;;;;;64.05;32.38;;;;;;;10.07;100.00;100656.78;5026850;28;20429;-76
2024/03/22 10:24:12;;;;;;;;;;;;;;;10.09;100.00;100663.63;5025351;28;20455;-77
2024/03/22 10:26:37;;;;;;;57.42;28.35;;;;;;;10.18;100.00;100668.97;5039950;28;20438;-78
2024/03/22 10:29:06;;;;;;;62.72;29.55;;;;;;;10.14;100.00;100665.81;5025375;28;20037;-77
2024/03/22 10:31:34;;;;;;;53.40;28.25;;;;;;;10.16;100.00;100661.16;5020835;28;20152;-78
2024/03/22 10:34:03;;;;;;;47.60;25.67;;;;;;;10.05;100.00;100658.78;5039413;28;20052;-77
2024/03/22 10:36:30;;;;;;;56.03;25.73;;;;;;;9.94;100.00;100641.22;5038426;28;20100;-77
2024/03/22 10:38:58;;;;;;;58.80;28.05;;;;;;;9.98;100.00;100653.25;5044812;28;20037;-77
2024/03/22 10:41:24;;;;;;;57.15;28.15;;;;;;;9.86;100.00;100643.88;5037788;28;20041;-77
2024/03/22 10:43:50;;;;;;;62.92;29.38;;;;;;;9.98;100.00;100647.09;5016342;28;20127;-77
2024/03/22 10:46:19;;;;;;;63.97;29.90;;;;;;;9.84;100.00;100640.53;5026257;28;20036;-77
2024/03/22 10:48:45;;;;;;;64.47;31.08;;;;;;;9.84;100.00;100648.53;5025031;28;20037;-77
2024/03/22 10:51:12;;;;;;;74.10;31.92;;;;;;;9.84;100.00;100648.53;5024638;28;20120;-77
2024/03/22 10:53:38;;;;;;;62.95;30.88;;;;;;;9.78;100.00;100646.50;5037978;28;20634;-77
2024/03/22 10:56:06;;;;;;;63.25;30.15;;;;;;;9.84;100.00;100641.34;5039281;28;20126;-77
2024/03/22 10:58:32;;;;;;;65.10;30.33;;;;;;;9.70;100.00;100626.78;5037757;28;20098;-77
2024/03/22 11:00:57;;;;;;;63.10;29.08;;;;;;;9.62;100.00;100629.44;5028168;28;20049;-78
2024/03/22 11:03:25;;;;;;;63.28;29.10;;;;;;;9.57;100.00;100629.06;5026985;28;20056;-78
2024/03/22 11:05:55;;;;;;;64.10;28.08;;;;;;;9.59;100.00;100647.56;5023995;28;20041;-77